createdAt,value
2018-07-11T00:01:03.826Z,16.00
2018-07-11T00:02:08.670Z,16.00
2018-07-11T00:03:13.580Z,16.10
2018-07-11T00:04:18.901Z,16.10
2018-07-11T00:05:24.044Z,16.20
2018-07-11T00:06:29.165Z,16.10
2018-07-11T00:07:34.339Z,16.10
2018-07-11T00:08:39.506Z,16.10
2018-07-11T00:09:44.491Z,16.00
2018-07-11T00:10:49.252Z,16.00
2018-07-11T00:11:54.430Z,16.00
2018-07-11T00:12:59.166Z,16.00
2018-07-11T00:14:04.594Z,16.00
2018-07-11T00:15:09.727Z,16.00
2018-07-11T00:16:16.124Z,16.00
2018-07-11T00:17:21.060Z,16.00
2018-07-11T00:18:26.120Z,16.00
2018-07-11T00:19:30.863Z,16.00
2018-07-11T00:20:35.723Z,16.00
2018-07-11T00:21:40.997Z,16.00
2018-07-11T00:22:46.440Z,16.00
2018-07-11T00:23:51.615Z,16.00
2018-07-11T00:24:56.450Z,16.00
2018-07-11T00:26:01.547Z,16.00
2018-07-11T00:27:07.540Z,16.00
2018-07-11T00:28:12.930Z,16.00
2018-07-11T00:29:17.845Z,16.00
2018-07-11T00:30:23.218Z,16.00
2018-07-11T00:31:28.708Z,16.00
2018-07-11T00:32:33.855Z,16.00
2018-07-11T00:33:38.924Z,15.90
2018-07-11T00:34:44.334Z,15.90
2018-07-11T00:35:49.900Z,15.90
2018-07-11T00:36:55.806Z,16.00
2018-07-11T00:38:00.907Z,16.00
2018-07-11T00:39:06.758Z,16.00
2018-07-11T00:40:11.922Z,15.90
2018-07-11T00:41:17.664Z,15.90
2018-07-11T00:42:22.594Z,15.90
2018-07-11T00:43:27.824Z,15.90
2018-07-11T00:44:33.238Z,15.90
2018-07-11T00:45:39.084Z,15.90
2018-07-11T00:46:44.215Z,15.90
2018-07-11T00:47:49.057Z,15.90
2018-07-11T00:48:53.832Z,15.90
2018-07-11T00:49:58.562Z,15.90
2018-07-11T00:51:04.181Z,15.90
2018-07-11T00:52:09.228Z,15.90
2018-07-11T00:53:14.532Z,15.90
2018-07-11T00:54:19.362Z,15.90
2018-07-11T00:55:25.897Z,16.00
2018-07-11T00:56:31.351Z,15.90
2018-07-11T00:57:37.539Z,16.00
2018-07-11T00:58:52.750Z,15.90
2018-07-11T00:59:58.651Z,16.00
2018-07-11T01:01:11.752Z,16.00
2018-07-11T01:02:17.145Z,16.00
2018-07-11T01:03:24.279Z,16.00
2018-07-11T01:04:29.636Z,15.60
2018-07-11T01:05:34.960Z,16.00
2018-07-11T01:06:39.826Z,15.90
2018-07-11T01:07:45.511Z,15.90
2018-07-11T01:08:56.082Z,16.00
2018-07-11T01:10:01.067Z,15.90
2018-07-11T01:11:13.155Z,15.90
2018-07-11T01:12:18.472Z,13.60
2018-07-11T01:13:23.567Z,15.90
2018-07-11T01:16:24.915Z,15.80
2018-07-11T01:17:35.456Z,15.80
2018-07-11T01:18:51.729Z,17.40
2018-07-11T01:19:57.095Z,15.80
2018-07-11T01:21:01.927Z,15.80
2018-07-11T01:22:06.683Z,15.80
2018-07-11T01:23:11.447Z,18.20
2018-07-11T01:24:16.865Z,15.80
2018-07-11T01:25:22.307Z,15.80
2018-07-11T01:26:29.985Z,15.70
2018-07-11T01:27:34.793Z,15.70
2018-07-11T01:28:39.278Z,15.70
2018-07-11T01:29:43.748Z,15.70
2018-07-11T01:30:48.414Z,15.70
2018-07-11T01:31:53.060Z,15.70
2018-07-11T01:32:58.110Z,15.70
2018-07-11T01:34:02.929Z,15.60
2018-07-11T01:35:07.636Z,15.70
2018-07-11T01:36:12.823Z,15.60
2018-07-11T01:37:17.891Z,15.70
2018-07-11T01:38:22.952Z,15.70
2018-07-11T01:39:30.607Z,15.70
2018-07-11T01:40:35.203Z,15.70
2018-07-11T01:41:40.123Z,15.70
2018-07-11T01:42:45.259Z,13.90
2018-07-11T01:43:52.090Z,15.70
2018-07-11T01:44:56.853Z,15.80
2018-07-11T01:46:03.383Z,15.80
2018-07-11T01:47:08.932Z,15.80
2018-07-11T01:48:13.967Z,15.80
2018-07-11T01:49:19.807Z,15.70
2018-07-11T01:50:25.248Z,15.70
2018-07-11T01:51:41.020Z,15.70
2018-07-11T01:52:54.795Z,15.70
2018-07-11T01:53:59.924Z,15.60
2018-07-11T01:55:04.487Z,15.60
2018-07-11T01:56:09.332Z,15.60
2018-07-11T01:57:15.108Z,15.60
2018-07-11T01:58:20.054Z,15.60
2018-07-11T01:59:28.075Z,15.60
2018-07-11T02:00:33.794Z,15.70
2018-07-11T02:01:39.208Z,15.60
2018-07-11T02:02:43.846Z,15.60
2018-07-11T02:03:48.799Z,15.60
2018-07-11T02:04:53.672Z,15.60
2018-07-11T02:05:59.823Z,15.60
2018-07-11T02:07:04.683Z,15.60
2018-07-11T02:08:09.520Z,15.50
2018-07-11T02:09:14.207Z,15.60
2018-07-11T02:10:18.948Z,15.60
2018-07-11T02:11:23.617Z,14.50
2018-07-11T02:12:28.537Z,15.60
2018-07-11T02:13:33.280Z,15.60
2018-07-11T02:15:43.736Z,15.50
2018-07-11T02:16:48.834Z,15.60
2018-07-11T02:17:54.219Z,15.50
2018-07-11T02:18:59.261Z,15.40
2018-07-11T02:20:05.165Z,15.50
2018-07-11T02:21:10.828Z,15.50
2018-07-11T02:22:16.210Z,15.50
2018-07-11T02:23:21.396Z,15.40
2018-07-11T02:24:29.348Z,15.40
2018-07-11T02:25:35.436Z,15.40
2018-07-11T02:26:40.789Z,15.40
2018-07-11T02:27:46.351Z,15.40
2018-07-11T02:28:52.052Z,15.40
2018-07-11T02:29:57.580Z,15.40
2018-07-11T02:31:02.531Z,15.50
2018-07-11T02:32:07.351Z,15.40
2018-07-11T02:33:12.344Z,15.40
2018-07-11T02:34:21.393Z,15.40
2018-07-11T02:35:26.048Z,15.40
2018-07-11T02:36:31.829Z,15.40
2018-07-11T02:37:36.424Z,15.40
2018-07-11T02:38:41.324Z,15.40
2018-07-11T02:39:46.288Z,15.40
2018-07-11T02:40:50.800Z,15.40
2018-07-11T02:41:55.362Z,15.40
2018-07-11T02:43:00.935Z,15.30
2018-07-11T02:44:05.517Z,15.30
2018-07-11T02:45:10.091Z,15.40
2018-07-11T02:46:15.040Z,15.30
2018-07-11T02:47:25.079Z,15.40
2018-07-11T02:48:29.996Z,13.20
2018-07-11T02:49:34.709Z,15.30
2018-07-11T02:50:39.593Z,15.40
2018-07-11T02:51:44.401Z,15.30
2018-07-11T02:52:49.063Z,15.30
2018-07-11T02:53:53.835Z,15.30
2018-07-11T02:54:58.373Z,15.30
2018-07-11T02:56:02.996Z,15.30
2018-07-11T02:57:07.927Z,15.30
2018-07-11T02:58:12.993Z,15.30
2018-07-11T02:59:17.820Z,15.30
2018-07-11T03:00:22.652Z,15.30
2018-07-11T03:01:27.212Z,15.40
2018-07-11T03:02:32.059Z,15.40
2018-07-11T03:03:36.567Z,15.40
2018-07-11T03:04:42.030Z,15.40
2018-07-11T03:05:46.694Z,15.40
2018-07-11T03:06:51.691Z,15.40
2018-07-11T03:07:56.362Z,15.40
2018-07-11T03:09:00.887Z,14.00
2018-07-11T03:10:05.745Z,16.50
2018-07-11T03:11:10.273Z,15.40
2018-07-11T03:12:14.980Z,15.40
2018-07-11T03:13:22.433Z,15.40
2018-07-11T03:14:27.652Z,15.40
2018-07-11T03:15:32.526Z,15.40
2018-07-11T03:16:37.423Z,15.40
2018-07-11T03:17:42.120Z,15.40
2018-07-11T03:18:46.861Z,15.40
2018-07-11T03:19:52.035Z,15.50
2018-07-11T03:20:56.923Z,14.40
2018-07-11T03:22:02.224Z,15.40
2018-07-11T03:23:06.879Z,15.50
2018-07-11T03:24:12.038Z,15.40
2018-07-11T03:25:16.613Z,15.40
2018-07-11T03:26:21.492Z,15.40
2018-07-11T03:27:26.320Z,15.40
2018-07-11T03:28:31.079Z,15.50
2018-07-11T03:29:36.638Z,15.50
2018-07-11T03:30:41.819Z,15.50
2018-07-11T03:31:46.544Z,15.40
2018-07-11T03:32:51.162Z,15.40
2018-07-11T03:33:55.985Z,15.40
2018-07-11T03:35:00.890Z,15.50
2018-07-11T03:36:05.506Z,15.50
2018-07-11T03:37:10.602Z,15.40
2018-07-11T03:38:15.085Z,15.40
2018-07-11T03:39:20.842Z,15.40
2018-07-11T03:40:25.602Z,15.40
2018-07-11T03:41:30.557Z,14.70
2018-07-11T03:42:35.084Z,15.50
2018-07-11T03:43:39.623Z,15.50
2018-07-11T03:44:44.575Z,15.60
2018-07-11T03:45:49.128Z,15.60
2018-07-11T03:46:54.024Z,15.60
2018-07-11T03:47:58.583Z,15.60
2018-07-11T03:49:03.537Z,14.30
2018-07-11T03:50:08.066Z,15.60
2018-07-11T03:51:12.748Z,15.60
2018-07-11T03:52:17.244Z,15.60
2018-07-11T03:53:22.320Z,16.70
2018-07-11T03:54:27.206Z,15.60
2018-07-11T03:55:32.207Z,15.60
2018-07-11T03:56:36.856Z,15.60
2018-07-11T03:57:41.565Z,14.10
2018-07-11T03:58:46.304Z,15.60
2018-07-11T03:59:50.805Z,15.60
2018-07-11T04:00:55.842Z,15.60
2018-07-11T04:02:02.105Z,15.60
2018-07-11T04:03:25.362Z,15.60
2018-07-11T04:04:31.092Z,15.60
2018-07-11T04:05:40.630Z,15.60
2018-07-11T04:06:48.436Z,15.60
2018-07-11T04:07:53.219Z,15.60
2018-07-11T04:08:57.980Z,15.60
2018-07-11T04:10:02.706Z,15.60
2018-07-11T04:11:07.957Z,15.60
2018-07-11T04:12:13.184Z,15.60
2018-07-11T04:13:19.990Z,15.60
2018-07-11T04:14:24.815Z,15.60
2018-07-11T04:15:29.591Z,15.60
2018-07-11T04:16:34.084Z,15.60
2018-07-11T04:17:38.813Z,16.00
2018-07-11T04:18:43.366Z,15.60
2018-07-11T04:19:48.003Z,15.60
2018-07-11T04:20:52.702Z,15.60
2018-07-11T04:21:57.194Z,15.70
2018-07-11T04:23:01.932Z,15.60
2018-07-11T04:24:07.160Z,15.60
2018-07-11T04:25:12.116Z,14.30
2018-07-11T04:26:17.051Z,15.70
2018-07-11T04:27:21.908Z,15.70
2018-07-11T04:28:27.761Z,15.70
2018-07-11T04:29:33.092Z,15.70
2018-07-11T04:30:37.811Z,15.70
2018-07-11T04:31:42.809Z,15.70
2018-07-11T04:32:47.291Z,15.70
2018-07-11T04:33:51.789Z,15.80
2018-07-11T04:34:56.693Z,15.80
2018-07-11T04:36:01.854Z,15.80
2018-07-11T04:39:14.966Z,15.80
2018-07-11T04:41:24.014Z,15.90
2018-07-11T04:42:29.236Z,15.90
2018-07-11T04:43:34.396Z,15.90
2018-07-11T04:44:39.198Z,16.00
2018-07-11T04:45:45.672Z,16.00
2018-07-11T04:46:50.261Z,16.00
2018-07-11T04:47:54.862Z,16.00
2018-07-11T04:48:59.571Z,16.00
2018-07-11T04:50:04.475Z,16.00
2018-07-11T04:51:09.134Z,16.00
2018-07-11T04:52:13.801Z,16.00
2018-07-11T04:53:54.963Z,16.00
2018-07-11T04:54:59.724Z,14.70
2018-07-11T04:56:05.524Z,16.00
2018-07-11T04:57:10.145Z,16.00
2018-07-11T04:58:14.805Z,16.00
2018-07-11T04:59:20.820Z,16.00
2018-07-11T05:00:29.099Z,17.50
2018-07-11T05:01:34.686Z,16.00
2018-07-11T05:02:39.869Z,16.00
2018-07-11T05:03:44.837Z,16.00
2018-07-11T05:04:49.328Z,16.00
2018-07-11T05:05:53.837Z,16.00
2018-07-11T05:06:58.291Z,16.00
2018-07-11T05:08:03.966Z,16.00
2018-07-11T05:09:08.483Z,16.00
2018-07-11T05:10:13.224Z,16.00
2018-07-11T05:11:18.391Z,16.00
2018-07-11T05:12:22.948Z,16.00
2018-07-11T05:13:27.457Z,16.00
2018-07-11T05:14:31.875Z,16.00
2018-07-11T05:15:36.626Z,16.00
2018-07-11T05:16:41.207Z,16.00
2018-07-11T05:17:45.639Z,16.10
2018-07-11T05:18:50.122Z,16.10
2018-07-11T05:19:54.829Z,16.10
2018-07-11T05:20:59.588Z,17.30
2018-07-11T05:22:04.107Z,16.10
2018-07-11T05:23:08.608Z,17.80
2018-07-11T05:24:13.429Z,16.20
2018-07-11T05:25:17.975Z,16.20
2018-07-11T05:26:23.167Z,16.20
2018-07-11T05:27:28.981Z,16.20
2018-07-11T05:28:33.797Z,16.20
2018-07-11T05:29:39.262Z,16.10
2018-07-11T05:30:44.096Z,16.20
2018-07-11T05:31:49.223Z,16.10
2018-07-11T05:32:53.816Z,16.10
2018-07-11T05:33:58.647Z,16.20
2018-07-11T05:35:03.100Z,16.20
2018-07-11T05:36:08.229Z,16.20
2018-07-11T05:37:12.944Z,16.20
2018-07-11T05:38:17.456Z,16.20
2018-07-11T05:39:22.766Z,16.20
2018-07-11T05:40:27.306Z,16.30
2018-07-11T05:41:31.733Z,16.20
2018-07-11T05:42:36.183Z,16.30
2018-07-11T05:43:41.216Z,16.30
2018-07-11T05:44:45.844Z,16.00
2018-07-11T05:45:50.557Z,16.30
2018-07-11T05:46:59.119Z,16.30
2018-07-11T05:48:03.757Z,16.40
2018-07-11T05:49:08.621Z,16.40
2018-07-11T05:50:13.366Z,16.40
2018-07-11T05:51:19.020Z,16.40
2018-07-11T05:52:23.532Z,16.40
2018-07-11T05:53:28.890Z,16.40
2018-07-11T05:54:34.559Z,16.50
2018-07-11T05:55:39.604Z,16.50
2018-07-11T05:56:44.120Z,16.50
2018-07-11T05:57:48.775Z,16.50
2018-07-11T05:58:53.704Z,16.50
2018-07-11T05:59:58.378Z,16.60
2018-07-11T06:01:03.228Z,16.60
2018-07-11T06:02:07.842Z,16.60
2018-07-11T06:03:12.390Z,16.60
2018-07-11T06:04:18.015Z,16.60
2018-07-11T06:05:23.218Z,16.60
2018-07-11T06:06:28.206Z,16.60
2018-07-11T06:07:32.709Z,16.70
2018-07-11T06:08:37.655Z,16.70
2018-07-11T06:09:42.255Z,16.70
2018-07-11T06:10:46.908Z,16.70
2018-07-11T06:11:51.720Z,16.70
2018-07-11T06:12:56.484Z,16.80
2018-07-11T06:14:01.197Z,16.80
2018-07-11T06:15:06.112Z,16.80
2018-07-11T06:16:12.774Z,16.90
2018-07-11T06:17:17.241Z,16.80
2018-07-11T06:18:24.288Z,16.90
2018-07-11T06:19:29.264Z,16.90
2018-07-11T06:20:33.715Z,16.90
2018-07-11T06:21:39.652Z,16.90
2018-07-11T06:22:44.332Z,17.00
2018-07-11T06:23:49.731Z,16.90
2018-07-11T06:24:54.544Z,16.90
2018-07-11T06:25:59.061Z,17.00
2018-07-11T06:27:03.512Z,17.00
2018-07-11T06:28:10.848Z,17.00
2018-07-11T06:29:15.356Z,17.00
2018-07-11T06:30:20.117Z,17.00
2018-07-11T06:31:27.718Z,17.00
2018-07-11T06:32:33.085Z,16.30
2018-07-11T06:33:37.549Z,16.90
2018-07-11T06:34:42.759Z,16.90
2018-07-11T06:35:47.658Z,16.90
2018-07-11T06:36:52.271Z,16.90
2018-07-11T06:37:58.467Z,16.80
2018-07-11T06:39:03.413Z,16.80
2018-07-11T06:40:08.632Z,16.80
2018-07-11T06:41:14.153Z,16.80
2018-07-11T06:42:18.863Z,16.90
2018-07-11T06:43:23.459Z,16.90
2018-07-11T06:44:28.024Z,16.90
2018-07-11T06:45:33.534Z,16.90
2018-07-11T06:46:40.022Z,16.90
2018-07-11T06:47:44.767Z,16.90
2018-07-11T06:48:49.314Z,15.60
2018-07-11T06:49:53.991Z,16.90
2018-07-11T06:50:59.194Z,16.90
2018-07-11T06:52:05.460Z,16.90
2018-07-11T06:53:10.169Z,16.90
2018-07-11T06:54:15.398Z,16.90
2018-07-11T06:55:19.906Z,16.90
2018-07-11T06:56:25.524Z,16.90
2018-07-11T06:57:30.504Z,16.90
2018-07-11T06:58:34.948Z,16.30
2018-07-11T06:59:39.546Z,16.90
2018-07-11T07:00:44.138Z,16.90
2018-07-11T07:01:48.626Z,16.90
2018-07-11T07:02:54.772Z,16.90
2018-07-11T07:03:59.793Z,17.00
2018-07-11T07:05:04.480Z,17.00
2018-07-11T07:06:09.077Z,17.00
2018-07-11T07:07:13.656Z,17.00
2018-07-11T07:08:18.161Z,17.00
2018-07-11T07:09:22.662Z,17.10
2018-07-11T07:10:27.184Z,17.10
2018-07-11T07:11:32.447Z,17.20
2018-07-11T07:12:37.761Z,17.20
2018-07-11T07:13:43.463Z,17.30
2018-07-11T07:14:48.423Z,17.30
2018-07-11T07:15:53.821Z,17.40
2018-07-11T07:16:58.330Z,17.40
2018-07-11T07:18:03.765Z,17.50
2018-07-11T07:19:08.820Z,17.40
2018-07-11T07:20:13.324Z,17.40
2018-07-11T07:21:17.815Z,17.40
2018-07-11T07:22:22.430Z,17.30
2018-07-11T07:23:27.230Z,17.30
2018-07-11T07:24:31.739Z,17.20
2018-07-11T07:25:36.259Z,17.20
2018-07-11T07:26:40.831Z,17.10
2018-07-11T07:27:46.152Z,17.10
2018-07-11T07:28:50.882Z,17.10
2018-07-11T07:29:56.348Z,17.10
2018-07-11T07:31:00.845Z,17.10
2018-07-11T07:32:05.323Z,17.10
2018-07-11T07:33:09.747Z,17.10
2018-07-11T07:34:15.351Z,16.10
2018-07-11T07:35:20.379Z,17.10
2018-07-11T07:36:28.881Z,17.20
2018-07-11T07:37:33.379Z,17.20
2018-07-11T07:38:52.462Z,17.20
2018-07-11T07:39:57.868Z,17.20
2018-07-11T07:41:03.826Z,17.20
2018-07-11T07:43:11.168Z,17.20
2018-07-11T07:44:15.827Z,17.20
2018-07-11T07:45:21.656Z,17.30
2018-07-11T07:46:26.715Z,17.30
2018-07-11T07:47:36.364Z,17.30
2018-07-11T07:48:41.026Z,17.30
2018-07-11T07:49:46.007Z,17.40
2018-07-11T07:50:51.449Z,17.40
2018-07-11T07:51:56.712Z,17.40
2018-07-11T07:53:01.342Z,17.40
2018-07-11T07:54:06.112Z,17.50
2018-07-11T07:55:10.963Z,17.50
2018-07-11T07:56:15.596Z,17.60
2018-07-11T07:57:20.135Z,17.60
2018-07-11T07:58:25.052Z,17.60
2018-07-11T07:59:30.147Z,17.60
2018-07-11T08:00:34.825Z,17.70
2018-07-11T08:01:39.905Z,17.70
2018-07-11T08:02:44.373Z,17.70
2018-07-11T08:03:50.519Z,17.80
2018-07-11T08:04:55.995Z,17.80
2018-07-11T08:06:01.472Z,17.80
2018-07-11T08:07:06.019Z,17.50
2018-07-11T08:08:10.570Z,17.90
2018-07-11T08:09:15.184Z,17.90
2018-07-11T08:10:20.085Z,18.00
2018-07-11T08:11:25.951Z,18.10
2018-07-11T08:12:30.715Z,18.20
2018-07-11T08:13:35.260Z,18.20
2018-07-11T08:14:40.060Z,18.20
2018-07-11T08:15:44.577Z,18.20
2018-07-11T08:16:50.743Z,18.30
2018-07-11T08:17:55.257Z,18.20
2018-07-11T08:19:00.095Z,18.30
2018-07-11T08:20:05.207Z,18.20
2018-07-11T08:21:09.767Z,18.20
2018-07-11T08:22:24.814Z,19.60
2018-07-11T08:23:41.788Z,17.50
2018-07-11T08:24:57.439Z,18.20
2018-07-11T08:26:12.928Z,18.20
2018-07-11T08:27:43.440Z,18.20
2018-07-11T08:31:10.875Z,18.20
2018-07-11T08:33:00.273Z,18.20
2018-07-11T08:34:29.827Z,18.30
2018-07-11T08:35:51.531Z,18.30
2018-07-11T08:39:08.832Z,18.40
2018-07-11T08:40:27.475Z,18.40
2018-07-11T08:42:04.694Z,18.60
2018-07-11T08:43:17.448Z,18.70
2018-07-11T08:44:32.776Z,18.70
2018-07-11T08:50:04.801Z,18.80
2018-07-11T08:51:30.326Z,18.90
2018-07-11T08:54:47.104Z,19.10
2018-07-11T08:56:02.446Z,19.20
2018-07-11T08:57:15.397Z,19.40
2018-07-11T08:58:48.028Z,19.50
2018-07-11T09:01:08.548Z,19.40
2018-07-11T09:06:29.050Z,19.40
2018-07-11T09:09:48.044Z,19.40
2018-07-11T09:11:31.166Z,19.40
2018-07-11T09:14:48.259Z,19.40
2018-07-11T09:20:12.236Z,19.40
2018-07-11T09:24:03.230Z,19.50
2018-07-11T09:25:08.128Z,19.60
2018-07-11T09:26:13.615Z,19.80
2018-07-11T09:27:20.748Z,19.90
2018-07-11T09:28:25.795Z,20.00
2018-07-11T09:29:32.388Z,20.10
2018-07-11T09:30:37.942Z,20.20
2018-07-11T09:33:06.537Z,20.30
2018-07-11T09:34:14.832Z,20.40
2018-07-11T09:35:20.933Z,20.40
2018-07-11T09:36:31.442Z,20.50
2018-07-11T09:37:37.850Z,20.50
2018-07-11T09:38:42.735Z,20.60
2018-07-11T09:39:47.652Z,22.60
2018-07-11T09:40:52.712Z,20.70
2018-07-11T09:41:58.731Z,20.80
2018-07-11T09:43:03.684Z,20.90
2018-07-11T09:44:10.400Z,20.90
2018-07-11T09:45:16.091Z,20.90
2018-07-11T09:46:22.136Z,21.00
2018-07-11T09:47:28.280Z,21.10
2018-07-11T09:48:33.412Z,21.20
2018-07-11T09:49:38.477Z,21.20
2018-07-11T09:50:43.232Z,21.30
2018-07-11T09:51:48.031Z,22.30
2018-07-11T09:52:52.867Z,21.40
2018-07-11T09:53:58.170Z,21.50
2018-07-11T09:55:03.512Z,22.00
2018-07-11T09:56:10.133Z,21.50
2018-07-11T09:57:14.848Z,21.30
2018-07-11T09:58:20.089Z,21.60
2018-07-11T09:59:26.109Z,21.60
2018-07-11T10:00:37.273Z,21.60
2018-07-11T10:01:43.100Z,21.70
2018-07-11T10:02:48.198Z,21.70
2018-07-11T10:03:53.288Z,21.60
2018-07-11T10:04:57.951Z,21.60
2018-07-11T10:06:02.992Z,21.60
2018-07-11T10:07:07.513Z,21.60
2018-07-11T10:08:12.741Z,23.50
2018-07-11T10:09:18.120Z,21.50
2018-07-11T10:10:22.989Z,21.60
2018-07-11T10:11:28.506Z,21.60
2018-07-11T10:12:34.648Z,21.50
2018-07-11T10:13:41.276Z,21.50
2018-07-11T10:14:48.759Z,21.50
2018-07-11T10:15:54.226Z,21.50
2018-07-11T10:16:58.841Z,21.50
2018-07-11T10:18:05.110Z,21.50
2018-07-11T10:19:09.835Z,21.60
2018-07-11T10:20:14.544Z,21.70
2018-07-11T10:21:19.211Z,21.40
2018-07-11T10:22:23.856Z,21.70
2018-07-11T10:23:29.787Z,21.80
2018-07-11T10:24:34.431Z,21.80
2018-07-11T10:25:41.445Z,21.90
2018-07-11T10:26:51.204Z,21.90
2018-07-11T10:28:08.985Z,22.00
2018-07-11T10:29:22.351Z,22.10
2018-07-11T10:30:26.794Z,22.10
2018-07-11T10:31:33.350Z,22.20
2018-07-11T10:32:39.452Z,22.30
2018-07-11T10:33:44.849Z,22.40
2018-07-11T10:34:49.985Z,22.50
2018-07-11T10:35:54.649Z,22.60
2018-07-11T10:36:59.565Z,22.70
2018-07-11T10:38:04.115Z,22.80
2018-07-11T10:39:10.240Z,22.80
2018-07-11T10:40:16.123Z,22.90
2018-07-11T10:41:21.693Z,22.90
2018-07-11T10:42:27.597Z,22.90
2018-07-11T10:43:32.110Z,22.90
2018-07-11T10:44:37.047Z,22.90
2018-07-11T10:45:41.940Z,23.00
2018-07-11T10:46:46.763Z,23.00
2018-07-11T10:47:51.753Z,23.10
2018-07-11T10:48:56.291Z,23.10
2018-07-11T10:50:01.629Z,23.00
2018-07-11T10:51:06.726Z,22.90
2018-07-11T10:52:11.705Z,22.80
2018-07-11T10:53:17.375Z,22.70
2018-07-11T10:54:22.593Z,21.70
2018-07-11T10:55:27.876Z,22.50
2018-07-11T10:56:32.871Z,22.50
2018-07-11T10:57:37.853Z,22.50
2018-07-11T10:58:43.082Z,22.70
2018-07-11T10:59:48.143Z,22.70
2018-07-11T11:01:05.700Z,23.00
2018-07-11T11:02:00.340Z,23.20
2018-07-11T11:03:05.270Z,23.40
2018-07-11T11:04:10.851Z,23.50
2018-07-11T11:05:15.404Z,23.50
2018-07-11T11:06:20.458Z,23.50
2018-07-11T11:07:25.202Z,23.40
2018-07-11T11:12:07.353Z,23.70
2018-07-11T11:13:15.028Z,25.80
2018-07-11T11:17:25.910Z,28.30
2018-07-11T11:18:30.889Z,31.30
2018-07-11T11:19:37.212Z,32.30
2018-07-11T11:20:43.647Z,32.90
2018-07-11T11:21:52.095Z,33.60
2018-07-11T11:22:57.702Z,33.60
2018-07-11T11:24:03.105Z,33.70
2018-07-11T11:25:08.451Z,34.20
2018-07-11T11:26:16.674Z,34.80
2018-07-11T11:27:24.096Z,35.00
2018-07-11T11:28:30.294Z,34.20
2018-07-11T11:29:35.511Z,33.50
2018-07-11T11:30:40.335Z,32.50
2018-07-11T11:34:55.815Z,30.80
2018-07-11T11:36:00.794Z,29.00
2018-07-11T11:37:05.497Z,28.30
2018-07-11T11:38:11.262Z,27.70
2018-07-11T11:39:16.997Z,26.70
2018-07-11T11:40:22.061Z,26.50
2018-07-11T11:41:29.141Z,25.90
2018-07-11T11:42:37.922Z,25.50
2018-07-11T11:43:43.806Z,25.10
2018-07-11T11:44:49.197Z,24.80
2018-07-11T11:45:54.488Z,24.40
2018-07-11T11:47:02.187Z,24.20
2018-07-11T11:48:06.855Z,24.10
2018-07-11T11:49:11.743Z,24.00
2018-07-11T11:50:17.009Z,23.90
2018-07-11T11:51:24.017Z,23.90
2018-07-11T11:52:31.485Z,23.90
2018-07-11T11:53:37.798Z,23.90
2018-07-11T11:54:43.386Z,23.90
2018-07-11T11:55:48.630Z,23.90
2018-07-11T11:56:53.427Z,23.80
2018-07-11T11:57:58.834Z,23.70
2018-07-11T11:59:03.471Z,23.70
2018-07-11T12:00:07.956Z,23.60
2018-07-11T12:01:13.421Z,23.60
2018-07-11T12:02:18.179Z,23.70
2018-07-11T12:03:23.011Z,23.70
2018-07-11T12:04:28.263Z,23.70
2018-07-11T12:05:33.477Z,23.70
2018-07-11T12:08:07.472Z,23.70
2018-07-11T12:09:17.246Z,23.60
2018-07-11T12:11:26.790Z,23.20
2018-07-11T12:12:33.652Z,23.20
2018-07-11T12:13:38.689Z,23.10
2018-07-11T12:14:44.015Z,23.00
2018-07-11T12:15:49.241Z,23.00
2018-07-11T12:16:54.669Z,22.90
2018-07-11T12:17:59.628Z,22.90
2018-07-11T12:19:04.873Z,22.90
2018-07-11T12:20:09.936Z,23.00
2018-07-11T12:21:14.879Z,23.00
2018-07-11T12:22:25.203Z,23.10
2018-07-11T12:23:30.037Z,23.20
2018-07-11T12:24:37.115Z,23.30
2018-07-11T12:25:54.331Z,23.40
2018-07-11T12:26:59.618Z,23.50
2018-07-11T12:28:04.379Z,23.50
2018-07-11T12:29:09.495Z,23.50
2018-07-11T12:30:14.171Z,23.60
2018-07-11T12:31:19.856Z,23.60
2018-07-11T12:32:24.591Z,23.60
2018-07-11T12:33:29.477Z,23.70
2018-07-11T12:34:34.654Z,23.80
2018-07-11T12:35:39.543Z,23.90
2018-07-11T12:36:44.734Z,23.90
2018-07-11T12:37:49.428Z,24.00
2018-07-11T12:38:59.421Z,24.00
2018-07-11T12:40:04.646Z,24.10
2018-07-11T12:41:09.630Z,24.20
2018-07-11T12:42:16.272Z,23.70
2018-07-11T12:43:21.219Z,24.40
2018-07-11T12:44:27.891Z,24.40
2018-07-11T12:45:34.391Z,24.50
2018-07-11T12:46:39.068Z,24.50
2018-07-11T12:49:54.336Z,24.50
2018-07-11T12:51:02.116Z,24.50
2018-07-11T12:52:07.391Z,24.50
2018-07-11T12:53:12.980Z,24.40
2018-07-11T12:54:17.634Z,24.40
2018-07-11T12:55:22.322Z,24.40
2018-07-11T12:56:28.822Z,24.40
2018-07-11T12:57:34.769Z,24.40
2018-07-11T12:58:40.968Z,24.30
2018-07-11T12:59:46.106Z,24.30
2018-07-11T13:00:52.956Z,24.30
2018-07-11T13:01:58.230Z,24.30
2018-07-11T13:03:03.147Z,24.30
2018-07-11T13:04:08.637Z,24.20
2018-07-11T13:05:13.279Z,23.50
2018-07-11T13:06:18.365Z,24.10
2018-07-11T13:07:23.969Z,24.00
2018-07-11T13:08:28.835Z,24.00
2018-07-11T13:09:33.804Z,24.00
2018-07-11T13:10:39.105Z,24.00
2018-07-11T13:11:44.264Z,24.00
2018-07-11T13:12:50.383Z,24.00
2018-07-11T13:13:55.526Z,23.90
2018-07-11T13:15:01.146Z,23.20
2018-07-11T13:16:05.982Z,23.90
2018-07-11T13:17:12.297Z,23.90
2018-07-11T13:18:16.815Z,23.90
2018-07-11T13:19:21.802Z,23.90
2018-07-11T13:20:30.018Z,23.90
2018-07-11T13:21:35.646Z,23.90
2018-07-11T13:22:40.352Z,24.00
2018-07-11T13:23:45.478Z,24.00
2018-07-11T13:24:50.404Z,23.90
2018-07-11T13:25:57.204Z,23.90
2018-07-11T13:27:03.205Z,24.40
2018-07-11T13:28:08.094Z,23.90
2018-07-11T13:29:13.079Z,23.90
2018-07-11T13:30:19.210Z,23.90
2018-07-11T13:31:24.589Z,23.90
2018-07-11T13:32:31.648Z,23.90
2018-07-11T13:33:36.503Z,24.00
2018-07-11T13:34:41.068Z,24.00
2018-07-11T13:35:47.193Z,24.00
2018-07-11T13:36:52.386Z,24.00
2018-07-11T13:37:57.526Z,24.00
2018-07-11T13:39:04.804Z,24.00
2018-07-11T13:40:09.377Z,23.90
2018-07-11T13:41:13.943Z,23.80
2018-07-11T13:42:18.896Z,23.70
2018-07-11T13:43:23.735Z,23.60
2018-07-11T13:44:29.688Z,23.50
2018-07-11T13:45:34.216Z,23.50
2018-07-11T13:46:40.094Z,23.40
2018-07-11T13:47:45.117Z,23.30
2018-07-11T13:48:50.015Z,23.30
2018-07-11T13:49:54.501Z,23.20
2018-07-11T13:51:02.100Z,23.20
2018-07-11T13:52:06.846Z,23.10
2018-07-11T13:53:11.717Z,23.10
2018-07-11T13:54:18.072Z,23.00
2018-07-11T13:55:23.933Z,23.00
2018-07-11T13:56:34.547Z,23.00
2018-07-11T13:57:40.424Z,22.90
2018-07-11T13:58:46.471Z,22.90
2018-07-11T13:59:51.640Z,22.80
2018-07-11T14:00:56.353Z,22.80
2018-07-11T14:02:02.679Z,22.80
2018-07-11T14:03:07.499Z,22.70
2018-07-11T14:04:13.277Z,22.70
2018-07-11T14:05:19.480Z,22.60
2018-07-11T14:06:24.320Z,22.60
2018-07-11T14:07:29.813Z,22.50
2018-07-11T14:08:35.183Z,22.50
2018-07-11T14:09:40.010Z,22.50
2018-07-11T14:10:44.919Z,22.40
2018-07-11T14:11:52.204Z,22.40
2018-07-11T14:12:56.972Z,23.00
2018-07-11T14:14:03.174Z,22.40
2018-07-11T14:15:08.679Z,22.40
2018-07-11T14:16:13.697Z,20.90
2018-07-11T14:17:19.801Z,22.30
2018-07-11T14:18:24.519Z,22.30
2018-07-11T14:19:29.637Z,22.30
2018-07-11T14:20:35.437Z,22.30
2018-07-11T14:21:41.128Z,22.30
2018-07-11T14:22:51.217Z,22.30
2018-07-11T14:23:56.235Z,22.20
2018-07-11T14:25:01.188Z,22.20
2018-07-11T14:26:06.548Z,22.70
2018-07-11T14:27:12.319Z,22.20
2018-07-11T14:28:17.426Z,22.20
2018-07-11T14:29:23.764Z,22.10
2018-07-11T14:30:28.702Z,22.10
2018-07-11T14:31:36.558Z,22.10
2018-07-11T14:32:51.912Z,22.10
2018-07-11T14:33:58.348Z,22.10
2018-07-11T14:35:03.212Z,22.10
2018-07-11T14:36:08.524Z,22.10
2018-07-11T14:37:13.324Z,22.10
2018-07-11T14:38:18.320Z,22.00
2018-07-11T14:39:24.823Z,22.00
2018-07-11T14:40:29.524Z,22.00
2018-07-11T14:41:34.461Z,22.00
2018-07-11T14:42:39.756Z,22.00
2018-07-11T14:43:45.623Z,22.00
2018-07-11T14:44:50.699Z,22.00
2018-07-11T14:45:55.262Z,21.90
2018-07-11T14:47:01.732Z,21.90
2018-07-11T14:48:10.010Z,21.90
2018-07-11T14:49:16.686Z,21.90
2018-07-11T14:50:23.104Z,21.90
2018-07-11T14:51:28.872Z,21.80
2018-07-11T14:52:33.711Z,21.80
2018-07-11T14:53:41.156Z,23.10
2018-07-11T14:54:50.217Z,21.80
2018-07-11T14:55:54.970Z,21.80
2018-07-11T14:57:00.262Z,21.80
2018-07-11T14:58:05.569Z,21.80
2018-07-11T14:59:11.461Z,21.80
2018-07-11T15:00:16.432Z,21.80
2018-07-11T15:01:22.695Z,21.80